الصفحة الرئيسية
METAR-TAF:

METAR-TAF

مطار :

كامبو غراندي, ماتو غروسو دو سول, البرازيل

دائرة عرض: 20-28S, خط طول: 054-40W, ارتفاع: 567 متر

مراقبة الطقس الحالي

تاريخ ووقت الإصدار 20 دقيقة قبل الساعة 22:00UTC
ريح 6 عقدة من الشمال/الشمال الشرقي
درجة الحرارة 25°درجة مئوية
الرطوبة 44%
ضغط 1016 hPa
الرؤية 10 كم أو أكثر
الغيوم لا تقل 1500 م ولا وجود لمزنة ركامية السحاب الأسود

METAR: SBCG 122200Z 03006KT CAVOK 25/12 Q1016

زمن: 18:20 (22:20 UTC)

توقعات

تاريخ ووقت الإصدار 5ساعات و 50 دقيقة قبل الساعة 16:30UTC
التوقعات صالحة من12 الساعة 18 UTC إلى 13 الساعة 18 UTC
ريح 7 عقدة من الشمال
الرؤية 10 كم أو أكثر
الغيوم لا تقل 1500 م ولا وجود لمزنة ركامية السحاب الأسود
أصبح
من 12 الساعة 22 UTC إلى 12 الساعة 24 UTC
ريح 5 عقدة من الشمال الشرقي
أصبح
من 13 الساعة 04 UTC إلى 13 الساعة 06 UTC
ريح 10 عقدة من الشرق/الشمال الشرقي
أصبح
من 13 الساعة 13 UTC إلى 13 الساعة 15 UTC
ريح 12 عقدة من الشمال

TAF: SBCG 121630Z 1218/1318 01007KT CAVOK TX30/1218Z TN20/1309Z BECMG 1222/1224 04005KT BECMG 1304/1306 06010KT BECMG 1313/1315 01012KT RMK PGL

أرصاد الطقس والتوقعات من أكثر من 4000 مطار (تقارير الطقس للمطار METAR والتنبؤ بالطقس بالمطارTAF).

المحطات المتاحة هي النقط الصفراء والحمراء على الخريطة.

حرك المؤشر فوق النقطة لمعرفة اسم المحطة.

ثم انقر لمعرفة أرصاد وتوقعات الطقس.

لتغيير الخارطة: اضغط على الأزرار الخضراء مع رمز الصليب الأسود للتكبير. على الزر الأخضر مع شرطة للتصغير، أو على الأسهم الخضراء للخرائط المجاورة.


METAR-TAF: